createdAt,value
2018-02-21T00:00:32.892Z,93.28
2018-02-21T00:01:33.190Z,93.18
2018-02-21T00:02:32.856Z,92.80
2018-02-21T00:03:32.811Z,92.61
2018-02-21T00:04:32.799Z,92.14
2018-02-21T00:05:32.878Z,91.96
2018-02-21T00:06:32.854Z,91.86
2018-02-21T00:07:33.132Z,91.86
2018-02-21T00:08:32.866Z,91.49
2018-02-21T00:09:32.649Z,92.05
2018-02-21T00:10:32.749Z,92.24
2018-02-21T00:11:32.707Z,92.80
2018-02-21T00:12:32.676Z,93.09
2018-02-21T00:13:33.005Z,93.66
2018-02-21T00:14:32.529Z,93.56
2018-02-21T00:15:32.673Z,93.28
2018-02-21T00:16:32.599Z,93.28
2018-02-21T00:17:32.570Z,93.18
2018-02-21T00:18:32.528Z,93.37
2018-02-21T00:19:32.795Z,93.80
2018-02-21T00:20:32.536Z,93.37
2018-02-21T00:21:32.315Z,94.03
2018-02-21T00:22:32.293Z,94.32
2018-02-21T00:23:32.344Z,95.07
2018-02-21T00:24:32.252Z,95.17
2018-02-21T00:25:32.525Z,96.01
2018-02-21T00:26:32.178Z,95.92
2018-02-21T00:27:32.203Z,95.36
2018-02-21T00:28:32.123Z,94.98
2018-02-21T00:29:32.104Z,94.79
2018-02-21T00:30:32.146Z,94.03
2018-02-21T00:31:32.343Z,94.51
2018-02-21T00:32:32.057Z,94.60
2018-02-21T00:33:32.040Z,94.46
2018-02-21T00:34:31.964Z,94.18
2018-02-21T00:35:31.934Z,93.70
2018-02-21T00:36:31.903Z,93.70
2018-02-21T00:37:31.901Z,93.70
2018-02-21T00:38:32.226Z,94.36
2018-02-21T00:39:31.821Z,94.46
2018-02-21T00:40:31.813Z,94.55
2018-02-21T00:42:31.790Z,94.08
2018-02-21T00:44:31.755Z,93.99
2018-02-21T00:45:31.957Z,93.80
2018-02-21T00:46:31.716Z,94.18
2018-02-21T00:47:31.737Z,94.36
2018-02-21T00:48:31.667Z,94.18
2018-02-21T00:49:31.615Z,94.08
2018-02-21T00:50:31.609Z,94.18
2018-02-21T00:51:31.716Z,94.84
2018-02-21T00:52:31.766Z,94.74
2018-02-21T00:53:31.529Z,95.12
2018-02-21T00:54:31.408Z,94.93
2018-02-21T00:55:31.467Z,95.03
2018-02-21T00:56:31.439Z,94.74
2018-02-21T00:57:31.412Z,95.21
2018-02-21T00:58:31.381Z,95.12
2018-02-21T00:59:31.573Z,95.40
2018-02-21T01:00:31.297Z,95.59
2018-02-21T01:01:31.297Z,95.83
2018-02-21T01:02:31.268Z,95.92
2018-02-21T01:03:31.243Z,95.64
2018-02-21T01:04:31.235Z,96.11
2018-02-21T01:05:31.185Z,96.20
2018-02-21T01:06:31.456Z,96.11
2018-02-21T01:07:31.113Z,95.64
2018-02-21T01:08:31.028Z,95.92
2018-02-21T01:09:31.073Z,95.50
2018-02-21T01:10:31.085Z,96.06
2018-02-21T01:11:31.009Z,95.78
2018-02-21T01:12:30.985Z,96.01
2018-02-21T01:13:31.194Z,96.53
2018-02-21T01:14:30.874Z,96.68
2018-02-21T01:15:30.821Z,96.58
2018-02-21T01:16:30.791Z,96.34
2018-02-21T01:17:30.761Z,97.00
2018-02-21T01:18:30.735Z,96.34
2018-02-21T01:19:30.704Z,96.53
2018-02-21T01:20:30.979Z,96.44
2018-02-21T01:21:30.700Z,96.58
2018-02-21T01:22:30.630Z,96.58
2018-02-21T01:23:30.609Z,95.83
2018-02-21T01:24:30.570Z,96.01
2018-02-21T01:25:30.542Z,95.54
2018-02-21T01:26:30.811Z,95.45
2018-02-21T01:27:30.480Z,95.36
2018-02-21T01:28:30.504Z,95.12
2018-02-21T01:29:30.473Z,94.65
2018-02-21T01:30:30.399Z,94.98
2018-02-21T01:31:30.589Z,94.93
2018-02-21T01:32:30.760Z,94.36
2018-02-21T01:33:30.430Z,93.99
2018-02-21T01:34:30.402Z,93.99
2018-02-21T01:35:30.259Z,94.36
2018-02-21T01:36:30.230Z,94.55
2018-02-21T01:37:30.201Z,94.36
2018-02-21T01:38:30.470Z,94.36
2018-02-21T01:39:30.144Z,94.08
2018-02-21T01:40:30.334Z,94.08
2018-02-21T01:42:30.058Z,93.51
2018-02-21T01:43:30.034Z,93.61
2018-02-21T01:44:30.302Z,93.61
2018-02-21T01:45:30.095Z,93.89
2018-02-21T01:46:30.096Z,94.36
2018-02-21T01:47:29.950Z,94.46
2018-02-21T01:48:29.960Z,94.46
2018-02-21T01:49:29.861Z,94.36
2018-02-21T01:50:30.142Z,94.18
2018-02-21T01:51:29.883Z,94.55
2018-02-21T01:52:29.849Z,94.65
2018-02-21T01:53:29.768Z,95.03
2018-02-21T01:54:29.807Z,96.06
2018-02-21T01:55:29.773Z,96.53
2018-02-21T01:56:29.747Z,96.53
2018-02-21T01:57:29.939Z,97.00
2018-02-21T01:58:29.605Z,96.15
2018-02-21T01:59:29.679Z,95.97
2018-02-21T02:00:29.550Z,95.59
2018-02-21T02:01:29.527Z,95.59
2018-02-21T02:02:29.497Z,95.87
2018-02-21T02:03:29.468Z,95.78
2018-02-21T02:04:29.740Z,95.78
2018-02-21T02:05:29.409Z,95.87
2018-02-21T02:06:29.381Z,95.40
2018-02-21T02:07:29.355Z,95.97
2018-02-21T02:08:29.417Z,95.50
2018-02-21T02:09:29.401Z,95.12
2018-02-21T02:10:29.363Z,95.87
2018-02-21T02:11:29.645Z,96.44
2018-02-21T02:12:29.332Z,96.53
2018-02-21T02:13:29.307Z,96.15
2018-02-21T02:15:29.187Z,96.25
2018-02-21T02:16:29.107Z,96.25
2018-02-21T02:17:29.086Z,96.34
2018-02-21T02:18:29.354Z,96.53
2018-02-21T02:19:29.026Z,96.53
2018-02-21T02:20:29.054Z,96.15
2018-02-21T02:21:28.965Z,96.53
2018-02-21T02:22:28.939Z,95.78
2018-02-21T02:23:28.912Z,95.97
2018-02-21T02:24:28.932Z,96.72
2018-02-21T02:25:29.154Z,96.25
2018-02-21T02:26:28.870Z,96.63
2018-02-21T02:27:28.880Z,96.53
2018-02-21T02:28:28.842Z,96.53
2018-02-21T02:30:28.756Z,96.63
2018-02-21T02:31:28.684Z,96.53
2018-02-21T02:32:29.142Z,96.81
2018-02-21T02:33:28.766Z,96.53
2018-02-21T02:34:28.782Z,96.44
2018-02-21T02:37:29.906Z,95.68
2018-02-21T02:39:28.939Z,95.78
2018-02-21T02:40:28.606Z,96.34
2018-02-21T02:41:28.583Z,96.34
2018-02-21T02:43:28.505Z,97.57
2018-02-21T02:44:28.450Z,98.04
2018-02-21T02:45:28.414Z,97.95
2018-02-21T02:46:28.744Z,98.52
2018-02-21T02:47:28.364Z,98.33
2018-02-21T02:48:28.329Z,98.99
2018-02-21T02:49:28.299Z,98.61
2018-02-21T02:50:28.391Z,98.61
2018-02-21T02:51:28.290Z,98.33
2018-02-21T02:52:28.216Z,98.42
2018-02-21T02:53:28.570Z,98.42
2018-02-21T02:54:28.159Z,97.57
2018-02-21T02:55:27.987Z,97.85
2018-02-21T02:56:27.957Z,97.85
2018-02-21T02:57:27.927Z,97.95
2018-02-21T02:58:27.904Z,97.29
2018-02-21T02:59:27.870Z,97.38
2018-02-21T03:00:28.140Z,97.38
2018-02-21T03:01:27.861Z,97.29
2018-02-21T03:02:27.784Z,97.57
2018-02-21T03:03:27.759Z,97.76
2018-02-21T03:04:27.726Z,97.95
2018-02-21T03:05:27.699Z,97.95
2018-02-21T03:06:27.973Z,97.85
2018-02-21T03:07:27.639Z,97.85
2018-02-21T03:08:27.611Z,97.67
2018-02-21T03:09:27.587Z,97.85
2018-02-21T03:11:27.525Z,96.81
2018-02-21T03:12:27.798Z,97.00
2018-02-21T03:13:27.469Z,97.00
2018-02-21T03:15:27.419Z,97.38
2018-02-21T03:16:27.384Z,97.76
2018-02-21T03:17:27.440Z,97.67
2018-02-21T03:18:27.665Z,97.95
2018-02-21T03:20:27.348Z,97.57
2018-02-21T03:22:27.215Z,97.95
2018-02-21T03:24:27.238Z,98.33
2018-02-21T03:25:27.429Z,98.52
2018-02-21T03:26:27.097Z,98.71
2018-02-21T03:27:27.066Z,97.57
2018-02-21T03:28:27.087Z,98.04
2018-02-21T03:29:27.011Z,97.76
2018-02-21T03:30:26.982Z,98.33
2018-02-21T03:31:27.253Z,97.76
2018-02-21T03:32:26.934Z,98.04
2018-02-21T03:33:26.903Z,97.85
2018-02-21T03:34:26.867Z,98.23
2018-02-21T03:35:26.844Z,97.95
2018-02-21T03:36:26.807Z,97.95
2018-02-21T03:37:27.085Z,97.85
2018-02-21T03:38:26.752Z,97.67
2018-02-21T03:39:26.726Z,97.67
2018-02-21T03:40:26.704Z,97.57
2018-02-21T03:41:26.664Z,97.67
2018-02-21T03:42:26.633Z,97.85
2018-02-21T03:44:26.579Z,97.85
2018-02-21T03:45:26.855Z,97.95
2018-02-21T03:46:26.519Z,98.04
2018-02-21T03:47:26.493Z,97.76
2018-02-21T03:48:26.464Z,97.76
2018-02-21T03:49:26.437Z,98.04
2018-02-21T03:51:26.380Z,97.76
2018-02-21T03:52:26.646Z,97.95
2018-02-21T03:53:26.317Z,97.57
2018-02-21T03:55:26.258Z,96.58
2018-02-21T03:56:26.231Z,96.39
2018-02-21T03:57:26.201Z,96.39
2018-02-21T03:58:26.174Z,96.86
2018-02-21T03:59:26.455Z,97.05
2018-02-21T04:00:26.118Z,97.24
2018-02-21T04:01:26.086Z,97.52
2018-02-21T04:02:26.061Z,97.80
2018-02-21T04:03:26.032Z,97.43
2018-02-21T04:04:25.999Z,97.80
2018-02-21T04:05:25.969Z,97.71
2018-02-21T04:06:26.240Z,98.14
2018-02-21T04:07:25.935Z,98.04
2018-02-21T04:09:25.855Z,98.33
2018-02-21T04:10:25.903Z,98.42
2018-02-21T04:11:25.875Z,98.52
2018-02-21T04:12:25.851Z,98.33
2018-02-21T04:13:26.068Z,98.52
2018-02-21T04:14:25.709Z,98.33
2018-02-21T04:15:25.769Z,98.52
2018-02-21T04:16:25.734Z,98.42
2018-02-21T04:17:25.729Z,98.52
2018-02-21T04:18:25.592Z,98.33
2018-02-21T04:19:25.571Z,98.52
2018-02-21T04:20:25.841Z,98.61
2018-02-21T04:21:25.509Z,98.33
2018-02-21T04:22:25.494Z,98.52
2018-02-21T04:23:25.449Z,98.23
2018-02-21T04:24:25.420Z,98.23
2018-02-21T04:25:25.392Z,98.80
2018-02-21T04:26:25.663Z,98.80
2018-02-21T04:27:25.332Z,98.42
2018-02-21T04:28:25.305Z,98.33
2018-02-21T04:29:25.324Z,98.71
2018-02-21T04:30:25.275Z,98.61
2018-02-21T04:31:25.224Z,98.52
2018-02-21T04:32:25.486Z,98.52
2018-02-21T04:33:25.165Z,98.52
2018-02-21T04:34:25.130Z,98.52
2018-02-21T04:35:25.101Z,98.52
2018-02-21T04:36:25.070Z,98.52
2018-02-21T04:37:25.046Z,98.42
2018-02-21T04:38:25.326Z,98.71
2018-02-21T04:39:25.034Z,98.80
2018-02-21T04:40:24.961Z,98.71
2018-02-21T04:43:24.868Z,98.71
2018-02-21T04:44:25.142Z,98.71
2018-02-21T04:45:24.816Z,98.90
2018-02-21T04:46:24.780Z,98.80
2018-02-21T04:47:24.761Z,98.80
2018-02-21T04:48:24.735Z,98.61
2018-02-21T04:49:24.745Z,98.80
2018-02-21T04:50:24.971Z,98.90
2018-02-21T04:51:24.648Z,98.61
2018-02-21T04:52:24.614Z,98.99
2018-02-21T04:53:24.582Z,98.33
2018-02-21T04:54:24.559Z,98.33
2018-02-21T04:55:24.530Z,98.52
2018-02-21T04:56:24.795Z,97.76
2018-02-21T04:57:24.468Z,98.14
2018-02-21T04:58:24.448Z,97.76
2018-02-21T04:59:24.413Z,97.67
2018-02-21T05:00:24.388Z,97.95
2018-02-21T05:02:24.323Z,97.76
2018-02-21T05:03:24.600Z,98.71
2018-02-21T05:04:24.267Z,98.71
2018-02-21T05:05:24.245Z,98.23
2018-02-21T05:06:24.208Z,97.76
2018-02-21T05:07:24.180Z,97.95
2018-02-21T05:08:24.154Z,97.76
2018-02-21T05:09:24.125Z,98.14
2018-02-21T05:10:24.394Z,97.85
2018-02-21T05:11:24.068Z,98.14
2018-02-21T05:12:24.053Z,97.80
2018-02-21T05:13:24.010Z,97.76
2018-02-21T05:14:23.980Z,97.76
2018-02-21T05:15:23.953Z,98.09
2018-02-21T05:16:23.932Z,97.95
2018-02-21T05:17:24.194Z,98.71
2018-02-21T05:18:23.882Z,98.52
2018-02-21T05:19:23.840Z,98.52
2018-02-21T05:20:23.818Z,98.52
2018-02-21T05:21:23.782Z,98.18
2018-02-21T05:22:23.752Z,98.33
2018-02-21T05:23:23.733Z,98.37
2018-02-21T05:24:24.006Z,98.37
2018-02-21T05:25:23.668Z,98.28
2018-02-21T05:26:23.639Z,98.28
2018-02-21T05:27:23.611Z,98.56
2018-02-21T05:28:23.580Z,98.75
2018-02-21T05:29:23.563Z,98.47
2018-02-21T05:30:23.524Z,98.47
2018-02-21T05:31:23.844Z,98.84
2018-02-21T05:32:23.466Z,98.75
2018-02-21T05:33:23.448Z,98.65
2018-02-21T05:35:23.379Z,98.47
2018-02-21T05:36:23.431Z,98.47
2018-02-21T05:37:23.321Z,97.71
2018-02-21T05:38:23.627Z,97.99
2018-02-21T05:39:23.351Z,97.80
2018-02-21T05:40:23.350Z,97.80
2018-02-21T05:41:23.205Z,97.80
2018-02-21T05:42:23.180Z,97.33
2018-02-21T05:43:23.152Z,97.80
2018-02-21T05:44:23.121Z,98.47
2018-02-21T05:45:23.403Z,98.47
2018-02-21T05:46:23.063Z,97.61
2018-02-21T05:47:23.035Z,97.61
2018-02-21T05:48:23.043Z,97.61
2018-02-21T05:50:22.952Z,98.09
2018-02-21T05:51:23.221Z,97.99
2018-02-21T05:52:22.889Z,98.37
2018-02-21T05:53:22.862Z,98.56
2018-02-21T05:54:22.831Z,98.75
2018-02-21T05:55:22.862Z,98.75
2018-02-21T05:56:22.773Z,98.84
2018-02-21T05:57:23.046Z,98.65
2018-02-21T05:58:22.718Z,98.75
2018-02-21T05:59:22.688Z,98.94
2018-02-21T06:00:22.706Z,98.28
2018-02-21T06:01:22.628Z,98.47
2018-02-21T06:02:22.598Z,98.28
2018-02-21T06:03:23.049Z,98.37
2018-02-21T06:04:22.540Z,98.28
2018-02-21T06:05:22.511Z,98.65
2018-02-21T06:06:22.565Z,97.71
2018-02-21T06:07:22.457Z,97.43
2018-02-21T06:08:22.427Z,97.33
2018-02-21T06:10:23.061Z,97.80
2018-02-21T06:11:22.338Z,97.90
2018-02-21T06:12:22.316Z,97.80
2018-02-21T06:13:22.279Z,97.90
2018-02-21T06:14:22.248Z,97.61
2018-02-21T06:15:22.226Z,97.80
2018-02-21T06:16:22.640Z,97.52
2018-02-21T06:17:22.169Z,97.52
2018-02-21T06:18:22.143Z,97.52
2018-02-21T06:19:22.112Z,97.52
2018-02-21T06:20:22.075Z,97.61
2018-02-21T06:21:22.098Z,97.80
2018-02-21T06:22:22.026Z,98.09
2018-02-21T06:23:22.297Z,97.90
2018-02-21T06:24:21.958Z,97.90
2018-02-21T06:25:22.020Z,98.65
2018-02-21T06:26:21.999Z,98.65
2018-02-21T06:27:21.874Z,97.43
2018-02-21T06:28:21.876Z,97.67
2018-02-21T06:29:21.924Z,97.71
2018-02-21T06:30:22.085Z,97.90
2018-02-21T06:31:21.754Z,97.90
2018-02-21T06:32:21.728Z,97.61
2018-02-21T06:33:21.703Z,97.71
2018-02-21T06:34:22.505Z,97.80
2018-02-21T06:35:21.641Z,97.71
2018-02-21T06:36:21.609Z,97.99
2018-02-21T06:37:21.888Z,97.61
2018-02-21T06:38:21.552Z,97.80
2018-02-21T06:39:21.520Z,98.18
2018-02-21T06:40:21.576Z,97.80
2018-02-21T06:41:21.466Z,97.52
2018-02-21T06:42:21.439Z,97.71
2018-02-21T06:43:21.403Z,97.71
2018-02-21T06:46:21.619Z,97.52
2018-02-21T06:47:21.290Z,97.14
2018-02-21T06:48:21.260Z,97.14
2018-02-21T06:49:21.230Z,97.33
2018-02-21T06:50:21.199Z,96.67
2018-02-21T06:51:21.251Z,96.86
2018-02-21T06:52:21.149Z,96.86
2018-02-21T06:53:21.451Z,96.30
2018-02-21T06:54:21.170Z,96.20
2018-02-21T06:57:20.996Z,96.48
2018-02-21T06:58:20.969Z,96.39
2018-02-21T06:59:20.940Z,96.58
2018-02-21T07:00:21.212Z,96.67
2018-02-21T07:01:20.887Z,97.24
2018-02-21T07:02:20.855Z,97.14
2018-02-21T07:03:20.823Z,97.43
2018-02-21T07:05:20.784Z,97.29
2018-02-21T07:06:20.739Z,97.67
2018-02-21T07:07:21.009Z,97.57
2018-02-21T07:08:20.795Z,97.38
2018-02-21T07:09:20.731Z,97.19
2018-02-21T07:10:20.703Z,97.57
2018-02-21T07:11:20.597Z,97.29
2018-02-21T07:12:20.668Z,97.19
2018-02-21T07:13:20.784Z,97.00
2018-02-21T07:14:20.502Z,96.72
2018-02-21T07:15:20.562Z,96.91
2018-02-21T07:16:20.632Z,97.00
2018-02-21T07:17:20.484Z,96.91
2018-02-21T07:18:20.400Z,96.44
2018-02-21T07:19:20.693Z,96.72
2018-02-21T07:20:20.382Z,95.87
2018-02-21T07:21:20.544Z,95.50
2018-02-21T07:22:20.281Z,94.93
2018-02-21T07:23:20.247Z,94.18
2018-02-21T07:24:20.220Z,95.26
2018-02-21T07:25:20.921Z,94.27
2018-02-21T07:26:20.208Z,94.18
2018-02-21T07:27:20.245Z,94.13
2018-02-21T07:28:20.184Z,93.94
2018-02-21T07:29:20.076Z,93.84
2018-02-21T07:30:20.058Z,93.66
2018-02-21T07:31:20.349Z,92.43
2018-02-21T07:32:19.997Z,92.29
2018-02-21T07:33:20.021Z,91.63
2018-02-21T07:34:19.946Z,91.63
2018-02-21T07:35:19.913Z,90.30
2018-02-21T07:36:19.884Z,88.70
2018-02-21T07:38:20.121Z,87.04
2018-02-21T07:39:19.795Z,86.00
2018-02-21T07:41:19.853Z,83.40
2018-02-21T07:42:19.721Z,82.73
2018-02-21T07:43:19.770Z,81.60
2018-02-21T07:44:19.663Z,80.65
2018-02-21T07:45:19.934Z,79.99
2018-02-21T07:46:19.630Z,79.85
2018-02-21T07:47:19.665Z,78.33
2018-02-21T07:48:19.561Z,78.14
2018-02-21T07:49:19.540Z,77.76
2018-02-21T07:50:19.502Z,77.39
2018-02-21T07:51:19.563Z,77.01
2018-02-21T07:52:19.835Z,76.44
2018-02-21T07:53:19.424Z,76.10
2018-02-21T07:54:19.411Z,75.43
2018-02-21T07:55:19.374Z,74.96
2018-02-21T07:56:19.350Z,74.87
2018-02-21T07:57:19.368Z,74.21
2018-02-21T07:58:19.298Z,73.45
2018-02-21T07:59:19.584Z,73.54
2018-02-21T08:00:19.252Z,74.02
2018-02-21T08:01:19.228Z,74.21
2018-02-21T08:02:19.253Z,75.12
2018-02-21T08:03:19.184Z,75.31
2018-02-21T08:04:19.154Z,76.10
2018-02-21T08:05:19.137Z,76.29
2018-02-21T08:06:19.420Z,74.62
2018-02-21T08:07:19.084Z,73.58
2018-02-21T08:08:19.115Z,72.92
2018-02-21T08:09:19.095Z,72.92
2018-02-21T08:10:19.017Z,73.01
2018-02-21T08:11:18.993Z,73.45
2018-02-21T08:12:18.970Z,74.87
2018-02-21T08:13:19.251Z,76.82
2018-02-21T08:14:18.925Z,77.67
2018-02-21T08:15:18.957Z,78.18
2018-02-21T08:16:19.370Z,76.32
2018-02-21T08:17:18.860Z,73.90
2018-02-21T08:18:18.847Z,72.10
2018-02-21T08:19:18.816Z,71.34
2018-02-21T08:20:19.105Z,71.19
2018-02-21T08:21:18.821Z,69.57
2018-02-21T08:22:18.749Z,69.10
2018-02-21T08:23:18.730Z,69.26
2018-02-21T08:24:18.715Z,70.74
2018-02-21T08:25:18.686Z,72.92
2018-02-21T08:26:18.720Z,74.21
2018-02-21T08:27:18.948Z,75.81
2018-02-21T08:28:18.642Z,78.05
2018-02-21T08:29:18.610Z,78.61
2018-02-21T08:30:18.582Z,79.47
2018-02-21T08:31:18.574Z,79.37
2018-02-21T08:32:18.671Z,79.85
2018-02-21T08:33:18.826Z,79.94
2018-02-21T08:34:18.503Z,80.88
2018-02-21T08:35:18.483Z,81.17
2018-02-21T08:36:18.459Z,81.74
2018-02-21T08:37:18.438Z,82.59
2018-02-21T08:38:18.419Z,82.87
2018-02-21T08:39:18.705Z,83.06
2018-02-21T08:40:18.375Z,83.44
2018-02-21T08:41:18.359Z,83.06
2018-02-21T08:42:18.339Z,82.59
2018-02-21T08:43:18.320Z,82.02
2018-02-21T08:44:18.293Z,81.07
2018-02-21T08:45:18.579Z,80.69
2018-02-21T08:46:18.265Z,80.51
2018-02-21T08:47:18.581Z,79.79
2018-02-21T08:48:18.309Z,78.85
2018-02-21T08:49:18.205Z,78.65
2018-02-21T08:50:18.165Z,78.65
2018-02-21T08:51:19.370Z,78.94
2018-02-21T08:53:18.161Z,77.65
2018-02-21T08:54:18.202Z,75.85
2018-02-21T08:55:18.274Z,73.71
2018-02-21T08:56:18.060Z,72.67
2018-02-21T08:57:18.388Z,72.10
2018-02-21T08:58:18.467Z,71.81
2018-02-21T08:59:17.982Z,72.16
2018-02-21T09:00:18.092Z,73.39
2018-02-21T09:01:18.018Z,74.68
2018-02-21T09:02:17.973Z,76.29
2018-02-21T09:03:18.190Z,77.23
2018-02-21T09:04:18.296Z,77.80
2018-02-21T09:05:17.859Z,78.42
2018-02-21T09:06:17.869Z,78.94
2018-02-21T09:07:17.817Z,79.37
2018-02-21T09:08:17.843Z,79.37
2018-02-21T09:09:17.768Z,79.66
2018-02-21T09:10:18.049Z,79.94
2018-02-21T09:11:17.741Z,79.94
2018-02-21T09:12:17.840Z,79.66
2018-02-21T09:13:17.680Z,79.41
2018-02-21T09:14:17.660Z,78.75
2018-02-21T09:15:17.650Z,78.13
2018-02-21T09:16:17.621Z,75.79
2018-02-21T09:17:17.893Z,72.52
2018-02-21T09:18:17.584Z,68.00
2018-02-21T09:19:17.680Z,66.42
2018-02-21T09:20:17.531Z,64.43
2018-02-21T09:21:17.518Z,63.57
2018-02-21T09:22:17.489Z,63.64
2018-02-21T09:23:17.471Z,64.78
2018-02-21T09:24:17.902Z,64.62
2018-02-21T09:25:17.433Z,64.81
2018-02-21T09:26:17.416Z,63.29
2018-02-21T09:27:17.392Z,62.62
2018-02-21T09:28:17.420Z,63.48
2018-02-21T09:29:17.348Z,63.64
2018-02-21T09:30:17.330Z,64.11
2018-02-21T09:31:17.612Z,65.69
2018-02-21T09:32:17.297Z,66.74
2018-02-21T09:33:17.368Z,67.30
2018-02-21T09:34:17.255Z,66.29
2018-02-21T09:35:17.240Z,66.54
2018-02-21T09:36:17.314Z,66.29
2018-02-21T09:37:17.281Z,64.43
2018-02-21T09:38:17.640Z,62.43
2018-02-21T09:39:17.161Z,62.34
2018-02-21T09:40:17.143Z,62.34
2018-02-21T09:41:17.127Z,63.17
2018-02-21T09:42:17.107Z,63.26
2018-02-21T09:43:17.089Z,63.48
2018-02-21T09:44:17.079Z,61.14
2018-02-21T09:45:17.360Z,60.19
2018-02-21T09:46:17.040Z,59.71
2018-02-21T09:47:17.023Z,59.88
2018-02-21T09:48:17.023Z,61.11
2018-02-21T09:49:16.989Z,60.89
2018-02-21T09:50:17.021Z,62.88
2018-02-21T09:51:16.951Z,63.45
2018-02-21T09:52:17.242Z,63.73
2018-02-21T09:53:16.940Z,63.64
2018-02-21T09:54:16.906Z,64.49
2018-02-21T09:55:16.909Z,64.49
2018-02-21T09:56:16.878Z,63.67
2018-02-21T09:57:17.550Z,63.10
2018-02-21T09:58:17.225Z,63.10
2018-02-21T09:59:16.877Z,61.96
2018-02-21T10:00:16.818Z,62.69
2018-02-21T10:01:16.928Z,64.43
2018-02-21T10:02:17.014Z,63.57
2018-02-21T10:03:16.751Z,62.62
2018-02-21T10:04:17.035Z,61.04
2018-02-21T10:05:16.718Z,60.38
2018-02-21T10:06:16.853Z,59.62
2018-02-21T10:07:16.693Z,59.71
2018-02-21T10:08:16.750Z,60.76
2018-02-21T10:09:16.699Z,60.47
2018-02-21T10:10:16.945Z,60.00
2018-02-21T10:11:16.627Z,60.03
2018-02-21T10:12:16.598Z,57.87
2018-02-21T10:13:16.583Z,56.07
2018-02-21T10:14:16.617Z,54.96
2018-02-21T10:15:16.970Z,54.00
2018-02-21T10:16:16.838Z,52.86
2018-02-21T10:17:16.520Z,52.61
2018-02-21T10:18:16.509Z,52.13
2018-02-21T10:19:16.576Z,51.18
2018-02-21T10:20:16.532Z,50.92
2018-02-21T10:21:16.462Z,51.43
2018-02-21T10:22:16.765Z,52.26
2018-02-21T10:23:16.433Z,54.24
2018-02-21T10:24:16.410Z,56.58
2018-02-21T10:25:16.449Z,57.34
2018-02-21T10:26:16.392Z,56.96
2018-02-21T10:27:16.368Z,57.43
2018-02-21T10:28:16.653Z,58.20
2018-02-21T10:29:16.339Z,57.34
2018-02-21T10:30:16.380Z,56.68
2018-02-21T10:31:16.314Z,57.34
2018-02-21T10:32:16.375Z,57.34
2018-02-21T10:33:16.286Z,57.46
2018-02-21T10:34:16.564Z,55.40
2018-02-21T10:35:16.248Z,53.72
2018-02-21T10:36:16.234Z,52.32
2018-02-21T10:37:16.221Z,51.43
2018-02-21T10:38:16.214Z,51.25
2018-02-21T10:39:16.285Z,51.15
2018-02-21T10:40:16.264Z,51.51
2018-02-21T10:41:16.522Z,52.45
2018-02-21T10:42:16.235Z,52.36
2018-02-21T10:43:16.138Z,52.93
2018-02-21T10:44:16.122Z,53.50
2018-02-21T10:45:16.112Z,54.33
2018-02-21T10:46:16.179Z,55.18
2018-02-21T10:47:16.163Z,55.66
2018-02-21T10:48:16.372Z,54.33
2018-02-21T10:49:16.062Z,54.71
2018-02-21T10:50:16.126Z,53.59
2018-02-21T10:51:16.114Z,52.93
2018-02-21T10:52:16.018Z,52.74
2018-02-21T10:53:16.082Z,53.03
2018-02-21T10:54:15.982Z,53.47
2018-02-21T10:55:16.280Z,53.64
2018-02-21T10:56:16.051Z,54.30
2018-02-21T10:57:16.037Z,54.30
2018-02-21T10:58:15.942Z,55.37
2018-02-21T10:59:15.918Z,54.61
2018-02-21T11:00:15.913Z,53.97
2018-02-21T11:01:15.939Z,53.03
2018-02-21T11:02:16.175Z,52.39
2018-02-21T11:03:15.862Z,52.17
2018-02-21T11:04:15.854Z,52.08
2018-02-21T11:05:15.849Z,52.36
2018-02-21T11:06:15.874Z,53.78
2018-02-21T11:07:15.809Z,53.47
2018-02-21T11:08:15.807Z,54.14
2018-02-21T11:09:16.093Z,53.28
2018-02-21T11:10:16.336Z,53.38
2018-02-21T11:11:15.810Z,53.95
2018-02-21T11:12:15.837Z,54.43
2018-02-21T11:13:15.724Z,54.39
2018-02-21T11:14:15.712Z,55.73
2018-02-21T11:15:15.787Z,56.68
2018-02-21T11:16:16.065Z,56.20
2018-02-21T11:17:15.800Z,55.91
2018-02-21T11:18:15.709Z,55.57
2018-02-21T11:19:15.726Z,55.18
2018-02-21T11:20:15.633Z,54.97
2018-02-21T11:21:15.610Z,55.63
2018-02-21T11:22:15.680Z,54.33
2018-02-21T11:23:16.269Z,53.31
2018-02-21T11:24:15.604Z,53.38
2018-02-21T11:25:15.665Z,53.09
2018-02-21T11:27:15.865Z,51.91
2018-02-21T11:28:16.974Z,49.27
2018-02-21T11:30:19.217Z,46.49
2018-02-21T11:31:16.874Z,44.20
2018-02-21T11:32:16.654Z,44.09
2018-02-21T11:33:17.801Z,45.59
2018-02-21T11:34:15.648Z,46.66
2018-02-21T11:35:15.717Z,43.63
2018-02-21T11:36:15.393Z,42.87
2018-02-21T11:37:15.449Z,43.16
2018-02-21T11:38:15.369Z,43.06
2018-02-21T11:39:15.361Z,42.87
2018-02-21T11:40:15.351Z,42.32
2018-02-21T11:41:15.708Z,40.80
2018-02-21T11:42:15.313Z,40.87
2018-02-21T11:43:15.353Z,42.20
2018-02-21T11:44:15.291Z,42.01
2018-02-21T11:45:15.277Z,40.39
2018-02-21T11:46:15.269Z,40.41
2018-02-21T11:47:15.557Z,41.06
2018-02-21T11:48:15.246Z,41.16
2018-02-21T11:49:15.234Z,40.22
2018-02-21T11:50:15.237Z,39.76
2018-02-21T11:51:15.208Z,39.08
2018-02-21T11:52:15.200Z,39.08
2018-02-21T11:53:15.491Z,40.12
2018-02-21T11:54:15.173Z,39.92
2018-02-21T11:55:15.176Z,39.17
2018-02-21T11:56:15.159Z,39.56
2018-02-21T11:57:15.148Z,39.10
2018-02-21T11:58:15.131Z,38.03
2018-02-21T11:59:15.419Z,38.98
2018-02-21T12:00:15.136Z,38.79
2018-02-21T12:01:15.378Z,37.76
2018-02-21T12:02:15.092Z,37.15
2018-02-21T12:03:15.093Z,38.78
2018-02-21T12:04:15.067Z,38.70
2018-02-21T12:05:15.367Z,36.12
2018-02-21T12:06:15.309Z,36.32
2018-02-21T12:07:15.046Z,37.29
2018-02-21T12:08:15.029Z,37.48
2018-02-21T12:09:15.025Z,36.52
2018-02-21T12:10:15.013Z,37.29
2018-02-21T12:11:15.060Z,36.44
2018-02-21T12:12:15.298Z,36.25
2018-02-21T12:13:14.979Z,35.57
2018-02-21T12:14:14.977Z,34.87
2018-02-21T12:15:14.990Z,37.67
2018-02-21T12:16:15.108Z,40.62
2018-02-21T12:17:14.953Z,41.76
2018-02-21T12:18:14.933Z,41.95
2018-02-21T12:19:15.324Z,41.47
2018-02-21T12:20:14.998Z,41.28
2018-02-21T12:21:14.932Z,42.02
2018-02-21T12:22:14.910Z,42.19
2018-02-21T12:23:14.914Z,43.80
2018-02-21T12:24:14.875Z,44.95
2018-02-21T12:25:15.186Z,45.23
2018-02-21T12:26:15.351Z,45.42
2018-02-21T12:27:14.977Z,44.85
2018-02-21T12:28:14.967Z,46.28
2018-02-21T12:29:14.815Z,46.19
2018-02-21T12:30:14.806Z,45.54
2018-02-21T12:31:14.974Z,44.97
2018-02-21T12:32:14.932Z,43.87
2018-02-21T12:33:14.860Z,41.97
2018-02-21T12:34:14.835Z,39.34
2018-02-21T12:35:14.750Z,37.55
2018-02-21T12:36:14.730Z,37.84
2018-02-21T12:37:14.718Z,37.86
2018-02-21T12:38:14.707Z,36.51
2018-02-21T12:39:14.997Z,37.80
2018-02-21T12:40:14.714Z,38.47
2018-02-21T12:41:14.752Z,39.99
2018-02-21T12:42:14.672Z,39.90
2018-02-21T12:43:14.656Z,40.09
2018-02-21T12:44:14.635Z,38.87
2018-02-21T12:45:14.628Z,38.70
2018-02-21T12:46:14.918Z,37.46
2018-02-21T12:47:14.602Z,36.69
2018-02-21T12:48:14.598Z,36.98
2018-02-21T12:49:14.584Z,36.60
2018-02-21T12:50:14.600Z,37.54
2018-02-21T12:51:14.613Z,37.54
2018-02-21T12:52:14.550Z,37.44
2018-02-21T12:53:14.888Z,38.66
2018-02-21T12:54:14.526Z,38.64
2018-02-21T12:56:14.568Z,41.17
2018-02-21T12:57:14.504Z,41.64
2018-02-21T12:58:14.553Z,42.88
2018-02-21T12:59:14.782Z,42.52
2018-02-21T13:00:14.473Z,41.38
2018-02-21T13:01:14.499Z,41.46
2018-02-21T13:02:14.438Z,41.93
2018-02-21T13:04:14.419Z,43.90
2018-02-21T13:05:14.409Z,43.90
2018-02-21T13:06:14.700Z,45.40
2018-02-21T13:07:14.384Z,45.40
2018-02-21T13:08:14.381Z,45.50
2018-02-21T13:09:14.362Z,44.00
2018-02-21T13:10:14.362Z,44.09
2018-02-21T13:12:14.621Z,43.26
2018-02-21T13:13:14.308Z,43.64
2018-02-21T13:14:14.303Z,42.31
2018-02-21T13:15:14.306Z,41.64
2018-02-21T13:16:14.274Z,41.74
2018-02-21T13:17:14.312Z,41.64
2018-02-21T13:18:14.554Z,41.47
2018-02-21T13:19:14.235Z,41.19
2018-02-21T13:20:14.225Z,40.43
2018-02-21T13:21:14.286Z,39.86
2018-02-21T13:22:14.270Z,39.09
2018-02-21T13:23:14.188Z,39.04
2018-02-21T13:24:14.472Z,37.63
2018-02-21T13:25:15.090Z,36.39
2018-02-21T13:26:14.411Z,35.82
2018-02-21T13:27:14.393Z,35.35
2018-02-21T13:28:14.401Z,35.06
2018-02-21T13:29:14.200Z,34.92